sensor_id;sensor_type;location;lat;lon;timestamp;P1;durP1;ratioP1;P2;durP2;ratioP2
5391;SDS011;2719;53.624;9.786;2023-09-18T00:01:16;5.13;;;3.10;;
5391;SDS011;2719;53.624;9.786;2023-09-18T00:03:46;3.33;;;2.47;;
5391;SDS011;2719;53.624;9.786;2023-09-18T00:06:12;4.50;;;3.57;;
5391;SDS011;2719;53.624;9.786;2023-09-18T00:08:39;5.33;;;3.20;;
5391;SDS011;2719;53.624;9.786;2023-09-18T00:11:05;7.77;;;3.97;;
5391;SDS011;2719;53.624;9.786;2023-09-18T00:13:33;3.97;;;3.20;;
5391;SDS011;2719;53.624;9.786;2023-09-18T00:15:59;5.20;;;3.27;;
5391;SDS011;2719;53.624;9.786;2023-09-18T00:18:26;5.67;;;3.00;;
5391;SDS011;2719;53.624;9.786;2023-09-18T00:20:54;3.30;;;3.00;;
5391;SDS011;2719;53.624;9.786;2023-09-18T00:23:20;6.57;;;4.00;;
5391;SDS011;2719;53.624;9.786;2023-09-18T00:25:47;3.83;;;3.07;;
5391;SDS011;2719;53.624;9.786;2023-09-18T00:28:13;3.47;;;2.80;;
5391;SDS011;2719;53.624;9.786;2023-09-18T00:30:42;3.97;;;3.00;;
5391;SDS011;2719;53.624;9.786;2023-09-18T00:33:12;5.23;;;3.83;;
5391;SDS011;2719;53.624;9.786;2023-09-18T00:35:39;2.83;;;2.60;;
5391;SDS011;2719;53.624;9.786;2023-09-18T00:38:07;3.97;;;2.87;;
5391;SDS011;2719;53.624;9.786;2023-09-18T00:40:34;3.40;;;3.10;;
5391;SDS011;2719;53.624;9.786;2023-09-18T00:43:01;6.80;;;3.60;;
5391;SDS011;2719;53.624;9.786;2023-09-18T00:45:27;5.70;;;3.40;;
5391;SDS011;2719;53.624;9.786;2023-09-18T00:47:54;5.87;;;3.37;;
5391;SDS011;2719;53.624;9.786;2023-09-18T00:50:21;5.43;;;3.40;;
5391;SDS011;2719;53.624;9.786;2023-09-18T00:52:48;4.93;;;3.70;;
5391;SDS011;2719;53.624;9.786;2023-09-18T00:55:17;4.60;;;3.13;;
5391;SDS011;2719;53.624;9.786;2023-09-18T00:57:44;4.17;;;2.60;;
5391;SDS011;2719;53.624;9.786;2023-09-18T01:00:12;4.57;;;3.33;;
5391;SDS011;2719;53.624;9.786;2023-09-18T01:02:42;4.20;;;3.37;;
5391;SDS011;2719;53.624;9.786;2023-09-18T01:05:10;4.27;;;3.40;;
5391;SDS011;2719;53.624;9.786;2023-09-18T01:07:37;10.10;;;4.30;;
5391;SDS011;2719;53.624;9.786;2023-09-18T01:10:04;3.97;;;3.13;;
5391;SDS011;2719;53.624;9.786;2023-09-18T01:12:38;5.50;;;3.40;;
5391;SDS011;2719;53.624;9.786;2023-09-18T01:15:12;4.83;;;3.10;;
5391;SDS011;2719;53.624;9.786;2023-09-18T01:17:42;3.30;;;3.00;;
5391;SDS011;2719;53.624;9.786;2023-09-18T01:20:10;3.10;;;2.80;;
5391;SDS011;2719;53.624;9.786;2023-09-18T01:22:39;4.17;;;2.70;;
5391;SDS011;2719;53.624;9.786;2023-09-18T01:25:06;4.87;;;3.27;;
5391;SDS011;2719;53.624;9.786;2023-09-18T01:27:33;6.87;;;3.10;;
5391;SDS011;2719;53.624;9.786;2023-09-18T01:30:00;4.30;;;3.40;;
5391;SDS011;2719;53.624;9.786;2023-09-18T01:32:27;5.17;;;2.97;;
5391;SDS011;2719;53.624;9.786;2023-09-18T01:34:57;5.80;;;3.40;;
5391;SDS011;2719;53.624;9.786;2023-09-18T01:37:27;6.63;;;3.40;;
5391;SDS011;2719;53.624;9.786;2023-09-18T01:39:56;3.60;;;3.13;;
5391;SDS011;2719;53.624;9.786;2023-09-18T01:42:24;7.97;;;3.83;;
5391;SDS011;2719;53.624;9.786;2023-09-18T01:44:51;3.97;;;3.40;;
5391;SDS011;2719;53.624;9.786;2023-09-18T01:47:19;4.50;;;3.37;;
5391;SDS011;2719;53.624;9.786;2023-09-18T01:49:51;5.67;;;3.27;;
5391;SDS011;2719;53.624;9.786;2023-09-18T01:52:17;8.83;;;4.13;;
5391;SDS011;2719;53.624;9.786;2023-09-18T01:54:44;5.90;;;3.40;;
5391;SDS011;2719;53.624;9.786;2023-09-18T01:57:12;7.20;;;3.73;;
5391;SDS011;2719;53.624;9.786;2023-09-18T01:59:39;7.73;;;3.00;;
5391;SDS011;2719;53.624;9.786;2023-09-18T02:02:06;8.70;;;3.73;;
5391;SDS011;2719;53.624;9.786;2023-09-18T02:04:34;4.90;;;2.87;;
5391;SDS011;2719;53.624;9.786;2023-09-18T02:07:01;8.73;;;3.50;;
5391;SDS011;2719;53.624;9.786;2023-09-18T02:09:28;6.50;;;3.47;;
5391;SDS011;2719;53.624;9.786;2023-09-18T02:11:55;4.80;;;3.80;;
5391;SDS011;2719;53.624;9.786;2023-09-18T02:14:23;3.47;;;3.17;;
5391;SDS011;2719;53.624;9.786;2023-09-18T02:16:50;4.23;;;3.20;;
5391;SDS011;2719;53.624;9.786;2023-09-18T02:19:17;4.03;;;3.20;;
5391;SDS011;2719;53.624;9.786;2023-09-18T02:21:45;3.97;;;3.00;;
5391;SDS011;2719;53.624;9.786;2023-09-18T02:24:11;8.03;;;3.33;;
5391;SDS011;2719;53.624;9.786;2023-09-18T02:26:38;4.30;;;3.10;;
5391;SDS011;2719;53.624;9.786;2023-09-18T02:29:05;4.00;;;3.20;;
5391;SDS011;2719;53.624;9.786;2023-09-18T02:31:36;5.83;;;3.30;;
5391;SDS011;2719;53.624;9.786;2023-09-18T02:34:03;5.53;;;3.00;;
5391;SDS011;2719;53.624;9.786;2023-09-18T02:36:30;6.80;;;3.50;;
5391;SDS011;2719;53.624;9.786;2023-09-18T02:38:57;3.87;;;3.40;;
5391;SDS011;2719;53.624;9.786;2023-09-18T02:41:23;8.87;;;3.10;;
5391;SDS011;2719;53.624;9.786;2023-09-18T02:43:50;4.53;;;3.13;;
5391;SDS011;2719;53.624;9.786;2023-09-18T02:46:17;4.10;;;3.20;;
5391;SDS011;2719;53.624;9.786;2023-09-18T02:48:44;4.80;;;3.33;;
5391;SDS011;2719;53.624;9.786;2023-09-18T02:51:11;5.20;;;3.67;;
5391;SDS011;2719;53.624;9.786;2023-09-18T02:53:38;3.77;;;3.40;;
5391;SDS011;2719;53.624;9.786;2023-09-18T02:56:04;6.03;;;3.73;;
5391;SDS011;2719;53.624;9.786;2023-09-18T02:58:31;7.50;;;3.00;;
5391;SDS011;2719;53.624;9.786;2023-09-18T03:00:58;4.80;;;3.50;;
5391;SDS011;2719;53.624;9.786;2023-09-18T03:03:24;3.20;;;2.97;;
5391;SDS011;2719;53.624;9.786;2023-09-18T03:05:53;4.67;;;3.17;;
5391;SDS011;2719;53.624;9.786;2023-09-18T03:08:26;4.57;;;3.70;;
5391;SDS011;2719;53.624;9.786;2023-09-18T03:10:53;7.23;;;3.60;;
5391;SDS011;2719;53.624;9.786;2023-09-18T03:13:21;11.97;;;4.00;;
5391;SDS011;2719;53.624;9.786;2023-09-18T03:15:48;4.50;;;3.57;;
5391;SDS011;2719;53.624;9.786;2023-09-18T03:18:14;3.77;;;3.33;;
5391;SDS011;2719;53.624;9.786;2023-09-18T03:20:41;5.17;;;3.40;;
5391;SDS011;2719;53.624;9.786;2023-09-18T03:23:09;4.90;;;3.77;;
5391;SDS011;2719;53.624;9.786;2023-09-18T03:25:36;6.37;;;3.60;;
5391;SDS011;2719;53.624;9.786;2023-09-18T03:28:03;4.30;;;3.20;;
5391;SDS011;2719;53.624;9.786;2023-09-18T03:30:30;6.13;;;3.53;;
5391;SDS011;2719;53.624;9.786;2023-09-18T03:32:57;4.20;;;3.20;;
5391;SDS011;2719;53.624;9.786;2023-09-18T03:35:23;6.80;;;3.60;;
5391;SDS011;2719;53.624;9.786;2023-09-18T03:37:50;6.43;;;3.13;;
5391;SDS011;2719;53.624;9.786;2023-09-18T03:40:20;6.13;;;3.87;;
5391;SDS011;2719;53.624;9.786;2023-09-18T03:42:47;6.63;;;3.50;;
5391;SDS011;2719;53.624;9.786;2023-09-18T03:45:14;5.60;;;3.97;;
5391;SDS011;2719;53.624;9.786;2023-09-18T03:47:42;3.97;;;3.37;;
5391;SDS011;2719;53.624;9.786;2023-09-18T03:50:09;4.77;;;3.83;;
5391;SDS011;2719;53.624;9.786;2023-09-18T03:52:37;5.20;;;3.70;;
5391;SDS011;2719;53.624;9.786;2023-09-18T03:55:05;4.10;;;3.43;;
5391;SDS011;2719;53.624;9.786;2023-09-18T03:57:33;5.50;;;3.47;;
5391;SDS011;2719;53.624;9.786;2023-09-18T04:00:00;3.80;;;3.10;;
5391;SDS011;2719;53.624;9.786;2023-09-18T04:02:27;7.27;;;3.70;;
5391;SDS011;2719;53.624;9.786;2023-09-18T04:04:55;4.80;;;3.90;;
5391;SDS011;2719;53.624;9.786;2023-09-18T04:07:21;4.37;;;3.00;;
5391;SDS011;2719;53.624;9.786;2023-09-18T04:09:48;4.07;;;3.20;;
5391;SDS011;2719;53.624;9.786;2023-09-18T04:12:15;5.00;;;3.53;;
5391;SDS011;2719;53.624;9.786;2023-09-18T04:14:43;7.50;;;3.80;;
5391;SDS011;2719;53.624;9.786;2023-09-18T04:17:09;8.60;;;3.77;;
5391;SDS011;2719;53.624;9.786;2023-09-18T04:19:36;10.27;;;3.80;;
5391;SDS011;2719;53.624;9.786;2023-09-18T04:22:03;4.33;;;3.70;;
5391;SDS011;2719;53.624;9.786;2023-09-18T04:24:29;5.10;;;3.37;;
5391;SDS011;2719;53.624;9.786;2023-09-18T04:26:56;4.53;;;3.33;;
5391;SDS011;2719;53.624;9.786;2023-09-18T04:29:23;3.80;;;3.30;;
5391;SDS011;2719;53.624;9.786;2023-09-18T04:31:50;5.27;;;4.30;;
5391;SDS011;2719;53.624;9.786;2023-09-18T04:34:18;6.03;;;3.67;;
5391;SDS011;2719;53.624;9.786;2023-09-18T04:36:45;4.43;;;3.40;;
5391;SDS011;2719;53.624;9.786;2023-09-18T04:39:12;6.20;;;3.93;;
5391;SDS011;2719;53.624;9.786;2023-09-18T04:41:39;5.90;;;3.77;;
5391;SDS011;2719;53.624;9.786;2023-09-18T04:44:06;9.60;;;3.80;;
5391;SDS011;2719;53.624;9.786;2023-09-18T04:46:33;6.57;;;3.90;;
5391;SDS011;2719;53.624;9.786;2023-09-18T04:49:02;10.93;;;4.53;;
5391;SDS011;2719;53.624;9.786;2023-09-18T04:51:30;3.50;;;3.03;;
5391;SDS011;2719;53.624;9.786;2023-09-18T04:53:57;13.47;;;3.73;;
5391;SDS011;2719;53.624;9.786;2023-09-18T04:56:24;4.13;;;3.70;;
5391;SDS011;2719;53.624;9.786;2023-09-18T04:58:51;4.67;;;3.53;;
5391;SDS011;2719;53.624;9.786;2023-09-18T05:01:18;7.10;;;4.00;;
5391;SDS011;2719;53.624;9.786;2023-09-18T05:03:45;4.87;;;3.40;;
5391;SDS011;2719;53.624;9.786;2023-09-18T05:06:14;4.37;;;3.57;;
5391;SDS011;2719;53.624;9.786;2023-09-18T05:08:42;4.90;;;3.27;;
5391;SDS011;2719;53.624;9.786;2023-09-18T05:11:09;4.60;;;3.80;;
5391;SDS011;2719;53.624;9.786;2023-09-18T05:13:35;4.60;;;3.33;;
5391;SDS011;2719;53.624;9.786;2023-09-18T05:16:02;9.50;;;3.50;;
5391;SDS011;2719;53.624;9.786;2023-09-18T05:18:29;7.37;;;3.83;;
5391;SDS011;2719;53.624;9.786;2023-09-18T05:20:55;5.13;;;3.93;;
5391;SDS011;2719;53.624;9.786;2023-09-18T05:23:24;5.37;;;4.00;;
5391;SDS011;2719;53.624;9.786;2023-09-18T05:25:51;5.00;;;4.03;;
5391;SDS011;2719;53.624;9.786;2023-09-18T05:28:18;6.90;;;4.10;;
5391;SDS011;2719;53.624;9.786;2023-09-18T05:30:44;6.13;;;4.20;;
5391;SDS011;2719;53.624;9.786;2023-09-18T05:33:11;10.03;;;5.43;;
5391;SDS011;2719;53.624;9.786;2023-09-18T05:35:39;8.43;;;4.93;;
5391;SDS011;2719;53.624;9.786;2023-09-18T05:38:06;9.60;;;4.60;;
5391;SDS011;2719;53.624;9.786;2023-09-18T05:40:35;9.07;;;4.73;;
5391;SDS011;2719;53.624;9.786;2023-09-18T05:43:01;14.93;;;5.33;;
5391;SDS011;2719;53.624;9.786;2023-09-18T05:45:28;7.33;;;4.57;;
5391;SDS011;2719;53.624;9.786;2023-09-18T05:47:56;10.97;;;5.53;;
5391;SDS011;2719;53.624;9.786;2023-09-18T05:50:28;4.90;;;3.80;;
5391;SDS011;2719;53.624;9.786;2023-09-18T05:52:56;9.07;;;4.47;;
5391;SDS011;2719;53.624;9.786;2023-09-18T05:55:24;7.87;;;3.13;;
5391;SDS011;2719;53.624;9.786;2023-09-18T05:57:52;5.13;;;3.60;;
5391;SDS011;2719;53.624;9.786;2023-09-18T06:00:19;11.83;;;5.07;;
5391;SDS011;2719;53.624;9.786;2023-09-18T06:02:47;8.17;;;4.90;;
5391;SDS011;2719;53.624;9.786;2023-09-18T06:05:13;6.30;;;4.20;;
5391;SDS011;2719;53.624;9.786;2023-09-18T06:07:42;5.60;;;4.13;;
5391;SDS011;2719;53.624;9.786;2023-09-18T06:10:09;15.63;;;3.97;;
5391;SDS011;2719;53.624;9.786;2023-09-18T06:12:37;9.73;;;4.47;;
5391;SDS011;2719;53.624;9.786;2023-09-18T06:15:06;7.80;;;3.63;;
5391;SDS011;2719;53.624;9.786;2023-09-18T06:17:35;5.80;;;3.47;;
5391;SDS011;2719;53.624;9.786;2023-09-18T06:20:02;5.43;;;3.90;;
5391;SDS011;2719;53.624;9.786;2023-09-18T06:22:29;7.03;;;4.60;;
5391;SDS011;2719;53.624;9.786;2023-09-18T06:24:56;9.93;;;5.23;;
5391;SDS011;2719;53.624;9.786;2023-09-18T06:27:23;8.03;;;4.20;;
5391;SDS011;2719;53.624;9.786;2023-09-18T06:29:49;8.60;;;4.33;;
5391;SDS011;2719;53.624;9.786;2023-09-18T06:32:17;4.00;;;3.60;;
5391;SDS011;2719;53.624;9.786;2023-09-18T06:34:44;6.70;;;4.00;;
5391;SDS011;2719;53.624;9.786;2023-09-18T06:37:12;6.70;;;3.90;;
5391;SDS011;2719;53.624;9.786;2023-09-18T06:39:39;7.77;;;3.77;;
5391;SDS011;2719;53.624;9.786;2023-09-18T06:42:06;7.80;;;3.60;;
5391;SDS011;2719;53.624;9.786;2023-09-18T06:44:32;9.80;;;3.93;;
5391;SDS011;2719;53.624;9.786;2023-09-18T06:46:59;7.23;;;4.10;;
5391;SDS011;2719;53.624;9.786;2023-09-18T06:49:27;6.93;;;4.00;;
5391;SDS011;2719;53.624;9.786;2023-09-18T06:51:53;7.33;;;3.23;;
5391;SDS011;2719;53.624;9.786;2023-09-18T06:54:20;6.90;;;4.03;;
5391;SDS011;2719;53.624;9.786;2023-09-18T06:56:46;4.57;;;3.27;;
5391;SDS011;2719;53.624;9.786;2023-09-18T06:59:13;4.23;;;3.70;;
5391;SDS011;2719;53.624;9.786;2023-09-18T07:01:40;6.07;;;4.17;;
5391;SDS011;2719;53.624;9.786;2023-09-18T07:04:07;4.53;;;3.57;;
5391;SDS011;2719;53.624;9.786;2023-09-18T07:06:35;5.10;;;3.63;;
5391;SDS011;2719;53.624;9.786;2023-09-18T07:09:02;3.60;;;3.13;;
5391;SDS011;2719;53.624;9.786;2023-09-18T07:11:31;5.00;;;3.30;;
5391;SDS011;2719;53.624;9.786;2023-09-18T07:13:58;8.00;;;3.60;;
5391;SDS011;2719;53.624;9.786;2023-09-18T07:16:26;10.20;;;4.33;;
5391;SDS011;2719;53.624;9.786;2023-09-18T07:18:52;4.50;;;3.37;;
5391;SDS011;2719;53.624;9.786;2023-09-18T07:21:19;4.30;;;3.83;;
5391;SDS011;2719;53.624;9.786;2023-09-18T07:23:47;9.83;;;3.77;;
5391;SDS011;2719;53.624;9.786;2023-09-18T07:26:14;6.47;;;3.87;;
5391;SDS011;2719;53.624;9.786;2023-09-18T07:28:40;5.53;;;3.33;;
5391;SDS011;2719;53.624;9.786;2023-09-18T07:31:09;5.60;;;3.73;;
5391;SDS011;2719;53.624;9.786;2023-09-18T07:33:39;4.23;;;3.60;;
5391;SDS011;2719;53.624;9.786;2023-09-18T07:36:06;5.23;;;3.10;;
5391;SDS011;2719;53.624;9.786;2023-09-18T07:38:32;5.50;;;4.63;;
5391;SDS011;2719;53.624;9.786;2023-09-18T07:41:00;4.83;;;3.00;;
5391;SDS011;2719;53.624;9.786;2023-09-18T07:43:27;4.17;;;3.63;;
5391;SDS011;2719;53.624;9.786;2023-09-18T07:45:53;7.00;;;4.40;;
5391;SDS011;2719;53.624;9.786;2023-09-18T07:48:21;4.60;;;3.83;;
5391;SDS011;2719;53.624;9.786;2023-09-18T07:50:48;3.17;;;2.70;;
5391;SDS011;2719;53.624;9.786;2023-09-18T07:53:15;6.77;;;4.07;;
5391;SDS011;2719;53.624;9.786;2023-09-18T07:55:42;11.10;;;4.57;;
5391;SDS011;2719;53.624;9.786;2023-09-18T07:58:10;6.83;;;4.03;;
5391;SDS011;2719;53.624;9.786;2023-09-18T08:00:38;6.90;;;4.20;;
5391;SDS011;2719;53.624;9.786;2023-09-18T08:03:05;8.57;;;3.43;;
5391;SDS011;2719;53.624;9.786;2023-09-18T08:05:32;7.70;;;4.60;;
5391;SDS011;2719;53.624;9.786;2023-09-18T08:07:58;3.10;;;2.80;;
5391;SDS011;2719;53.624;9.786;2023-09-18T08:10:26;4.60;;;3.30;;
5391;SDS011;2719;53.624;9.786;2023-09-18T08:12:52;20.57;;;3.60;;
5391;SDS011;2719;53.624;9.786;2023-09-18T08:15:20;6.70;;;3.10;;
5391;SDS011;2719;53.624;9.786;2023-09-18T08:17:47;5.93;;;3.37;;
5391;SDS011;2719;53.624;9.786;2023-09-18T08:20:14;6.30;;;3.30;;
5391;SDS011;2719;53.624;9.786;2023-09-18T08:22:41;4.87;;;3.47;;
5391;SDS011;2719;53.624;9.786;2023-09-18T08:25:09;6.90;;;4.33;;
5391;SDS011;2719;53.624;9.786;2023-09-18T08:27:36;7.70;;;3.67;;
5391;SDS011;2719;53.624;9.786;2023-09-18T08:30:05;4.30;;;3.20;;
5391;SDS011;2719;53.624;9.786;2023-09-18T08:32:35;4.23;;;3.70;;
5391;SDS011;2719;53.624;9.786;2023-09-18T08:35:02;6.50;;;3.80;;
5391;SDS011;2719;53.624;9.786;2023-09-18T08:37:29;6.50;;;3.93;;
5391;SDS011;2719;53.624;9.786;2023-09-18T08:39:55;5.30;;;3.43;;
5391;SDS011;2719;53.624;9.786;2023-09-18T08:42:22;7.40;;;3.33;;
5391;SDS011;2719;53.624;9.786;2023-09-18T08:44:51;16.33;;;4.53;;
5391;SDS011;2719;53.624;9.786;2023-09-18T08:47:20;8.80;;;3.80;;
5391;SDS011;2719;53.624;9.786;2023-09-18T08:49:48;5.70;;;3.97;;
5391;SDS011;2719;53.624;9.786;2023-09-18T08:52:17;29.60;;;4.30;;
5391;SDS011;2719;53.624;9.786;2023-09-18T08:54:44;10.03;;;4.20;;
5391;SDS011;2719;53.624;9.786;2023-09-18T08:57:12;8.90;;;3.20;;
5391;SDS011;2719;53.624;9.786;2023-09-18T08:59:39;5.57;;;3.73;;
5391;SDS011;2719;53.624;9.786;2023-09-18T09:02:07;9.77;;;3.60;;
5391;SDS011;2719;53.624;9.786;2023-09-18T09:04:36;8.27;;;3.00;;
5391;SDS011;2719;53.624;9.786;2023-09-18T09:07:04;4.50;;;3.27;;
5391;SDS011;2719;53.624;9.786;2023-09-18T09:09:31;6.13;;;3.17;;
5391;SDS011;2719;53.624;9.786;2023-09-18T09:11:58;5.27;;;3.90;;
5391;SDS011;2719;53.624;9.786;2023-09-18T09:14:24;4.27;;;3.70;;
5391;SDS011;2719;53.624;9.786;2023-09-18T09:16:54;3.90;;;3.50;;
5391;SDS011;2719;53.624;9.786;2023-09-18T09:19:27;6.43;;;3.70;;
5391;SDS011;2719;53.624;9.786;2023-09-18T09:21:55;6.87;;;3.87;;
5391;SDS011;2719;53.624;9.786;2023-09-18T09:24:36;5.20;;;3.07;;
5391;SDS011;2719;53.624;9.786;2023-09-18T09:27:05;4.73;;;3.40;;
5391;SDS011;2719;53.624;9.786;2023-09-18T09:29:31;9.10;;;4.10;;
5391;SDS011;2719;53.624;9.786;2023-09-18T09:32:11;4.33;;;3.30;;
5391;SDS011;2719;53.624;9.786;2023-09-18T09:34:40;4.60;;;3.30;;
5391;SDS011;2719;53.624;9.786;2023-09-18T09:37:07;7.10;;;3.70;;
5391;SDS011;2719;53.624;9.786;2023-09-18T09:39:34;4.97;;;3.73;;
5391;SDS011;2719;53.624;9.786;2023-09-18T09:42:02;5.00;;;3.60;;
5391;SDS011;2719;53.624;9.786;2023-09-18T09:44:31;4.07;;;3.07;;
5391;SDS011;2719;53.624;9.786;2023-09-18T09:46:58;5.73;;;2.60;;
5391;SDS011;2719;53.624;9.786;2023-09-18T09:49:25;6.33;;;2.40;;
5391;SDS011;2719;53.624;9.786;2023-09-18T09:51:55;5.97;;;2.90;;
5391;SDS011;2719;53.624;9.786;2023-09-18T09:54:31;4.90;;;2.60;;
5391;SDS011;2719;53.624;9.786;2023-09-18T09:57:07;6.57;;;2.87;;
5391;SDS011;2719;53.624;9.786;2023-09-18T09:59:33;7.97;;;2.33;;
5391;SDS011;2719;53.624;9.786;2023-09-18T10:02:00;14.03;;;2.87;;
5391;SDS011;2719;53.624;9.786;2023-09-18T10:04:28;5.17;;;2.23;;
5391;SDS011;2719;53.624;9.786;2023-09-18T10:07:03;5.83;;;1.67;;
5391;SDS011;2719;53.624;9.786;2023-09-18T10:09:33;6.53;;;2.10;;
5391;SDS011;2719;53.624;9.786;2023-09-18T10:12:02;7.97;;;2.80;;
5391;SDS011;2719;53.624;9.786;2023-09-18T10:14:37;5.50;;;2.33;;
5391;SDS011;2719;53.624;9.786;2023-09-18T10:17:09;2.83;;;2.57;;
5391;SDS011;2719;53.624;9.786;2023-09-18T10:19:45;4.67;;;2.30;;
5391;SDS011;2719;53.624;9.786;2023-09-18T10:22:19;4.20;;;2.13;;
5391;SDS011;2719;53.624;9.786;2023-09-18T10:24:52;3.33;;;2.43;;
5391;SDS011;2719;53.624;9.786;2023-09-18T10:27:25;5.67;;;2.17;;
5391;SDS011;2719;53.624;9.786;2023-09-18T10:29:54;7.30;;;2.47;;
5391;SDS011;2719;53.624;9.786;2023-09-18T10:32:22;7.00;;;3.67;;
5391;SDS011;2719;53.624;9.786;2023-09-18T10:34:50;5.10;;;2.57;;
5391;SDS011;2719;53.624;9.786;2023-09-18T10:37:17;4.80;;;2.13;;
5391;SDS011;2719;53.624;9.786;2023-09-18T10:39:45;3.77;;;2.17;;
5391;SDS011;2719;53.624;9.786;2023-09-18T10:42:14;5.07;;;2.10;;
5391;SDS011;2719;53.624;9.786;2023-09-18T10:44:44;7.30;;;2.30;;
5391;SDS011;2719;53.624;9.786;2023-09-18T10:47:12;3.70;;;2.60;;
5391;SDS011;2719;53.624;9.786;2023-09-18T10:49:40;5.33;;;2.53;;
5391;SDS011;2719;53.624;9.786;2023-09-18T10:52:10;5.23;;;2.73;;
5391;SDS011;2719;53.624;9.786;2023-09-18T10:54:37;8.23;;;2.70;;
5391;SDS011;2719;53.624;9.786;2023-09-18T10:57:05;3.50;;;2.10;;
5391;SDS011;2719;53.624;9.786;2023-09-18T10:59:32;6.37;;;2.53;;
5391;SDS011;2719;53.624;9.786;2023-09-18T11:02:02;6.43;;;2.30;;
5391;SDS011;2719;53.624;9.786;2023-09-18T11:04:31;6.03;;;2.20;;
5391;SDS011;2719;53.624;9.786;2023-09-18T11:07:00;6.93;;;2.30;;
5391;SDS011;2719;53.624;9.786;2023-09-18T11:09:30;10.00;;;2.30;;
5391;SDS011;2719;53.624;9.786;2023-09-18T11:12:02;9.40;;;3.20;;
5391;SDS011;2719;53.624;9.786;2023-09-18T11:14:40;7.47;;;1.90;;
5391;SDS011;2719;53.624;9.786;2023-09-18T11:20:08;13.20;;;3.43;;
5391;SDS011;2719;53.624;9.786;2023-09-18T11:22:45;14.03;;;3.10;;
5391;SDS011;2719;53.624;9.786;2023-09-18T11:28:03;6.30;;;2.20;;
5391;SDS011;2719;53.624;9.786;2023-09-18T11:30:32;8.40;;;3.40;;
5391;SDS011;2719;53.624;9.786;2023-09-18T11:33:00;8.07;;;2.10;;
5391;SDS011;2719;53.624;9.786;2023-09-18T11:35:29;8.03;;;2.43;;
5391;SDS011;2719;53.624;9.786;2023-09-18T11:38:04;6.63;;;2.50;;
5391;SDS011;2719;53.624;9.786;2023-09-18T11:40:33;9.13;;;2.30;;
5391;SDS011;2719;53.624;9.786;2023-09-18T11:43:18;7.00;;;2.20;;
5391;SDS011;2719;53.624;9.786;2023-09-18T11:45:50;3.50;;;1.97;;
5391;SDS011;2719;53.624;9.786;2023-09-18T11:48:18;4.87;;;1.97;;
5391;SDS011;2719;53.624;9.786;2023-09-18T11:50:47;6.33;;;3.03;;
5391;SDS011;2719;53.624;9.786;2023-09-18T11:53:15;4.60;;;2.63;;
5391;SDS011;2719;53.624;9.786;2023-09-18T11:55:43;4.53;;;1.70;;
5391;SDS011;2719;53.624;9.786;2023-09-18T11:58:10;12.10;;;2.70;;
5391;SDS011;2719;53.624;9.786;2023-09-18T12:00:38;3.83;;;2.00;;
5391;SDS011;2719;53.624;9.786;2023-09-18T12:03:14;6.73;;;2.30;;
5391;SDS011;2719;53.624;9.786;2023-09-18T12:05:51;11.30;;;2.60;;
5391;SDS011;2719;53.624;9.786;2023-09-18T12:08:19;5.60;;;2.17;;
5391;SDS011;2719;53.624;9.786;2023-09-18T12:10:48;7.70;;;2.00;;
5391;SDS011;2719;53.624;9.786;2023-09-18T12:13:15;5.80;;;2.17;;
5391;SDS011;2719;53.624;9.786;2023-09-18T12:15:42;7.13;;;1.67;;
5391;SDS011;2719;53.624;9.786;2023-09-18T12:18:09;6.90;;;2.00;;
5391;SDS011;2719;53.624;9.786;2023-09-18T12:20:37;12.40;;;1.87;;
5391;SDS011;2719;53.624;9.786;2023-09-18T12:23:11;9.03;;;1.53;;
5391;SDS011;2719;53.624;9.786;2023-09-18T12:25:38;9.43;;;1.83;;
5391;SDS011;2719;53.624;9.786;2023-09-18T12:28:05;2.67;;;1.90;;
5391;SDS011;2719;53.624;9.786;2023-09-18T12:30:33;5.90;;;2.10;;
5391;SDS011;2719;53.624;9.786;2023-09-18T12:32:59;11.77;;;2.00;;
5391;SDS011;2719;53.624;9.786;2023-09-18T12:35:28;13.53;;;2.83;;
5391;SDS011;2719;53.624;9.786;2023-09-18T12:37:55;6.33;;;1.47;;
5391;SDS011;2719;53.624;9.786;2023-09-18T12:40:25;9.33;;;1.80;;
5391;SDS011;2719;53.624;9.786;2023-09-18T12:42:54;7.13;;;1.70;;
5391;SDS011;2719;53.624;9.786;2023-09-18T12:45:21;5.80;;;1.30;;
5391;SDS011;2719;53.624;9.786;2023-09-18T12:47:48;2.47;;;1.33;;
5391;SDS011;2719;53.624;9.786;2023-09-18T12:50:16;6.20;;;1.53;;
5391;SDS011;2719;53.624;9.786;2023-09-18T12:52:42;9.00;;;1.53;;
5391;SDS011;2719;53.624;9.786;2023-09-18T12:55:19;7.67;;;1.70;;
5391;SDS011;2719;53.624;9.786;2023-09-18T12:57:48;5.60;;;1.77;;
5391;SDS011;2719;53.624;9.786;2023-09-18T13:00:16;6.40;;;1.47;;
5391;SDS011;2719;53.624;9.786;2023-09-18T13:02:45;8.27;;;1.70;;
5391;SDS011;2719;53.624;9.786;2023-09-18T13:05:11;3.40;;;1.30;;
5391;SDS011;2719;53.624;9.786;2023-09-18T13:07:43;7.10;;;1.60;;
5391;SDS011;2719;53.624;9.786;2023-09-18T13:10:10;19.03;;;1.93;;
5391;SDS011;2719;53.624;9.786;2023-09-18T13:12:39;6.03;;;1.53;;
5391;SDS011;2719;53.624;9.786;2023-09-18T13:15:08;7.50;;;1.20;;
5391;SDS011;2719;53.624;9.786;2023-09-18T13:17:37;14.43;;;2.10;;
5391;SDS011;2719;53.624;9.786;2023-09-18T13:20:12;9.53;;;1.20;;
5391;SDS011;2719;53.624;9.786;2023-09-18T13:22:40;6.30;;;1.37;;
5391;SDS011;2719;53.624;9.786;2023-09-18T13:25:08;6.07;;;1.10;;
5391;SDS011;2719;53.624;9.786;2023-09-18T13:27:35;6.27;;;1.47;;
5391;SDS011;2719;53.624;9.786;2023-09-18T13:30:03;6.07;;;1.63;;
5391;SDS011;2719;53.624;9.786;2023-09-18T13:32:35;6.90;;;1.10;;
5391;SDS011;2719;53.624;9.786;2023-09-18T13:35:02;9.40;;;1.40;;
5391;SDS011;2719;53.624;9.786;2023-09-18T13:37:30;5.27;;;1.20;;
5391;SDS011;2719;53.624;9.786;2023-09-18T13:39:57;6.70;;;2.10;;
5391;SDS011;2719;53.624;9.786;2023-09-18T13:42:26;12.30;;;1.33;;
5391;SDS011;2719;53.624;9.786;2023-09-18T13:44:54;4.47;;;1.43;;
5391;SDS011;2719;53.624;9.786;2023-09-18T13:47:21;9.13;;;2.27;;
5391;SDS011;2719;53.624;9.786;2023-09-18T13:49:49;4.83;;;1.63;;
5391;SDS011;2719;53.624;9.786;2023-09-18T13:52:16;6.23;;;1.60;;
5391;SDS011;2719;53.624;9.786;2023-09-18T13:54:44;7.50;;;1.93;;
5391;SDS011;2719;53.624;9.786;2023-09-18T13:57:16;3.80;;;1.37;;
5391;SDS011;2719;53.624;9.786;2023-09-18T13:59:43;4.93;;;1.20;;
5391;SDS011;2719;53.624;9.786;2023-09-18T14:02:10;8.77;;;1.63;;
5391;SDS011;2719;53.624;9.786;2023-09-18T14:04:37;4.33;;;1.77;;
5391;SDS011;2719;53.624;9.786;2023-09-18T14:07:05;2.67;;;1.20;;
5391;SDS011;2719;53.624;9.786;2023-09-18T14:09:32;13.97;;;1.67;;
5391;SDS011;2719;53.624;9.786;2023-09-18T14:11:58;4.53;;;1.60;;
5391;SDS011;2719;53.624;9.786;2023-09-18T14:14:25;4.10;;;1.30;;
5391;SDS011;2719;53.624;9.786;2023-09-18T14:16:52;2.33;;;1.10;;
5391;SDS011;2719;53.624;9.786;2023-09-18T14:19:19;8.23;;;1.40;;
5391;SDS011;2719;53.624;9.786;2023-09-18T14:21:45;8.07;;;1.47;;
5391;SDS011;2719;53.624;9.786;2023-09-18T14:24:15;8.57;;;1.33;;
5391;SDS011;2719;53.624;9.786;2023-09-18T14:26:43;7.10;;;1.37;;
5391;SDS011;2719;53.624;9.786;2023-09-18T14:29:10;4.73;;;1.03;;
5391;SDS011;2719;53.624;9.786;2023-09-18T14:31:38;5.50;;;1.60;;
5391;SDS011;2719;53.624;9.786;2023-09-18T14:34:05;3.40;;;1.23;;
5391;SDS011;2719;53.624;9.786;2023-09-18T14:36:33;5.33;;;1.20;;
5391;SDS011;2719;53.624;9.786;2023-09-18T14:39:00;4.70;;;1.37;;
5391;SDS011;2719;53.624;9.786;2023-09-18T14:41:29;4.47;;;1.73;;
5391;SDS011;2719;53.624;9.786;2023-09-18T14:43:57;4.77;;;1.40;;
5391;SDS011;2719;53.624;9.786;2023-09-18T14:46:23;4.33;;;1.13;;
5391;SDS011;2719;53.624;9.786;2023-09-18T14:48:50;3.90;;;1.13;;
5391;SDS011;2719;53.624;9.786;2023-09-18T14:51:17;9.67;;;1.67;;
5391;SDS011;2719;53.624;9.786;2023-09-18T14:53:44;6.27;;;1.03;;
5391;SDS011;2719;53.624;9.786;2023-09-18T14:56:10;8.33;;;1.20;;
5391;SDS011;2719;53.624;9.786;2023-09-18T14:58:38;5.33;;;1.37;;
5391;SDS011;2719;53.624;9.786;2023-09-18T15:01:05;5.07;;;1.00;;
5391;SDS011;2719;53.624;9.786;2023-09-18T15:03:31;8.10;;;1.20;;
5391;SDS011;2719;53.624;9.786;2023-09-18T15:05:58;6.40;;;2.00;;
5391;SDS011;2719;53.624;9.786;2023-09-18T15:08:26;4.30;;;1.10;;
5391;SDS011;2719;53.624;9.786;2023-09-18T15:10:53;2.20;;;1.17;;
5391;SDS011;2719;53.624;9.786;2023-09-18T15:13:20;6.97;;;1.07;;
5391;SDS011;2719;53.624;9.786;2023-09-18T15:15:48;2.40;;;0.93;;
5391;SDS011;2719;53.624;9.786;2023-09-18T15:18:15;5.40;;;1.00;;
5391;SDS011;2719;53.624;9.786;2023-09-18T15:20:42;3.93;;;1.40;;
5391;SDS011;2719;53.624;9.786;2023-09-18T15:23:09;2.93;;;1.07;;
5391;SDS011;2719;53.624;9.786;2023-09-18T15:25:36;1.90;;;0.97;;